Keota, Missouri
Current Conditions -  °F | °C
As of 6:55 AM on Friday 24 Oct 2014 (Local Time) from KIRK Reporting Station
Moderate Fog Moderate Fog  
Wind Chill: 55°   Ceiling: 200
Heat Index: 55°   Visibility: 0.25mi
Dew Point: 55°   Wind: 5mph
Humidity: 100%   Direction: 200°SSW
Pressure: 30.06"   Gusts: NA
Location:  39.7769°N, 92.5616°W
Report Text: KIRK 241155Z AUTO 20004KT 1/4SM FG VV002 13/13 A3006 RMK AO2 SLP183 T01280128 10139 20128 58002
Loading
Personal Weather Stations






























Interactive Weather Map
Tropical Storm Tracking
New forecast layout! Learn more

10-Day Weather Forecast

Advertisements
Track Severe Weather on mobile